Manitou Springs, CO

7:03 AM MST on December 29, 2014 (GMT -0700)
Crystal Park | Change Station
CLOSE
Current Station
Personal Weather Station
Location: Manitou Springs, CO
Elevation: 6854 ft
Nearby Weather Stations

Elev 6854 ft 38.84 °N, 104.91 °W | Updated 2 minutes ago

Overcast
Overcast
17.2 °F
Feels Like 17 °F
N
0.0
Wind Variable Wind from East
Gusts 0.0 mph

Today
High -- | Low -- °F
--% Chance of Precip.
Yesterday
High -- | Low -- °F
Precip. -- in
7:17 AM 4:46 PM
First Quarter, 59% visible
Pressure 30.11 in
Visibility 8.0 miles
Clouds Scattered Clouds 400 ft
Mostly Cloudy 4300 ft
Overcast 5500 ft
Windchill 17 °F
Dew Point 9 °F
Humidity 69%
Rainfall 0.00 in
Snow Depth Not available.
UV 0 out of 12
Pollen .10 out of 12
Air Quality Not available.
Flu Activity Not available.
METAR KAFF 291358Z 35014KT 8SM -SN SCT004 BKN043 OVC055 M08/M11 A2998 RMK AO2A SNB32E46UPB47E52SNB52 SLP195 P0000 T10791114

More Conditions Fewer Conditions

Pressure 30.11 in
Visibility 8.0 miles
Clouds Scattered Clouds 400 ft
Mostly Cloudy 4300 ft
Overcast 5500 ft
Windchill 17 °F
Dew Point 9 °F
Humidity 69%
Rainfall 0.00 in
Snow Depth Not available.
UV 0 out of 12
Pollen .10 out of 12
Air Quality Not available.
Flu Activity Not available.
METAR KAFF 291358Z 35014KT 8SM -SN SCT004 BKN043 OVC055 M08/M11 A2998 RMK AO2A SNB32E46UPB47E52SNB52 SLP195 P0000 T10791114

More Conditions Fewer Conditions

10-Day Weather Forecast

Almanac

Astronomy

Dec. 29, 2014 Rise Set
Actual Time
Civil Twilight
Nautical Twilight
Astronomical Twilight
Moon
Length of Visible Light
Length of Day
Tomorrow will be .
, % of the Moon is Illuminated

Today's Extremes

State Highs State Lows

Community

WunderPhotos

Upload Photos

1,781,587 photos uploaded!

WunderBlogs® & News

Nearby

Air Quality

  Air Quality AQ Index Pollutant
Not available.

Snow Depth

Station Depth Elevation

Earthquake Activity

City Distance Mag. Time & Date
Minimum magnitude displayed is 2.5.

Coastal Water Temperatures

Place Temperature

Nearby Weather Stations